Abbeville, South Carolina
Current Conditions -  °F | °C
As of 10:56 PM on Monday 22 Dec 2014 (Local Time) from KGRD Reporting Station
Haze Haze  
Wind Chill: 34°   Ceiling: 500
Heat Index: 40°   Visibility: 6mi
Dew Point: 38°   Wind: 8mph
Humidity: 93%   Direction: 60°ENE
Pressure: 30"   Gusts: NA
Location:  34.18°N, 82.38°W
Report Text: KGRD 230356Z AUTO 06007KT 6SM BR OVC005 04/03 A3000 RMK AO2 RAE56 SLP161 P0000 T00440033
Loading
Personal Weather Stations






























Interactive Weather Map New forecast layout! Learn more

10-Day Weather Forecast

Advertisements
Track Severe Weather on mobile